Time;durP1;ratioP1;P1;durP2;ratioP2;P2;SDS_P1;SDS_P2;PMS_P1;PMS_P2;Temp;Humidity;BMP_temperature;BMP_pressure;BME280_temperature;BME280_humidity;BME280_pressure;Samples;Min_cycle;Max_cycle;Signal;HPM_P1;HPM_P2
2022/01/23 00:00:28;;;;;;;21.50;10.80;;;;;;;-1.10;50.52;100611.52;117225;1183;21855;-50
2022/01/23 00:03:00;;;;;;;22.20;12.20;;;;;;;-1.13;50.54;100612.42;117280;1185;22934;-51
2022/01/23 00:05:38;;;;;;;30.50;13.40;;;;;;;-1.15;50.73;100615.77;117231;1185;23503;-61
2022/01/23 00:08:06;;;;;;;28.00;13.10;;;;;;;-1.17;50.59;100619.67;117241;1186;23593;-61
2022/01/23 00:10:35;;;;;;;34.50;15.60;;;;;;;-1.17;50.61;100618.11;117339;1183;22652;-57
2022/01/23 00:13:11;;;;;;;35.20;16.50;;;;;;;-1.20;50.68;100618.20;117100;1186;23450;-61
2022/01/23 00:18:28;;;;;;;21.60;10.40;;;;;;;-1.27;50.56;100616.35;117224;1179;23470;-50
2022/01/23 00:20:57;;;;;;;17.50;9.10;;;;;;;-1.31;50.72;100614.30;117135;1186;21864;-51
2022/01/23 00:31:38;;;;;;;14.50;7.40;;;;;;;-1.54;50.46;100617.36;117279;1183;21853;-60
2022/01/23 00:34:07;;;;;;;12.40;6.50;;;;;;;-1.59;50.35;100612.33;117285;1185;23658;-51
2022/01/23 00:36:35;;;;;;;16.30;8.50;;;;;;;-1.64;50.40;100610.39;117309;1182;22948;-60
2022/01/23 00:39:04;;;;;;;18.20;8.90;;;;;;;-1.73;50.47;100614.86;117288;1185;21885;-51
2022/01/23 00:41:32;;;;;;;11.30;6.70;;;;;;;-1.78;50.40;100615.50;117343;1180;22943;-53
2022/01/23 00:44:01;;;;;;;12.60;6.40;;;;;;;-1.84;50.51;100615.45;117204;1186;24162;-51
2022/01/23 00:46:35;;;;;;;15.00;6.60;;;;;;;-1.88;50.67;100618.88;117354;1186;22651;-56
2022/01/23 00:51:37;;;;;;;12.60;6.70;;;;;;;-1.98;50.57;100616.04;117346;1185;21832;-52
2022/01/23 00:54:07;;;;;;;12.60;6.10;;;;;;;-2.05;50.42;100614.23;117304;1185;21869;-50
2022/01/23 00:56:37;;;;;;;10.30;5.30;;;;;;;-2.18;50.31;100616.42;117319;1185;21855;-61
2022/01/23 00:59:11;;;;;;;12.00;6.30;;;;;;;-2.33;50.50;100616.98;117144;1183;22109;-51
2022/01/23 01:01:40;;;;;;;10.10;5.40;;;;;;;-2.47;50.29;100614.84;117187;1186;23504;-51
2022/01/23 01:04:08;;;;;;;10.70;5.90;;;;;;;-2.59;50.48;100616.02;117336;1182;24306;-50
2022/01/23 01:06:37;;;;;;;12.70;6.20;;;;;;;-2.66;50.36;100617.77;117180;1183;23509;-51
2022/01/23 01:09:07;;;;;;;12.80;6.50;;;;;;;-2.70;50.37;100623.42;117318;1182;23476;-50
2022/01/23 01:36:01;;;;;;;11.30;6.00;;;;;;;-2.61;51.03;100607.86;117279;1182;24173;-50
2022/01/23 01:38:31;;;;;;;13.80;7.10;;;;;;;-2.54;51.00;100607.99;117309;1176;23644;-50
2022/01/23 01:40:59;;;;;;;16.00;7.30;;;;;;;-2.48;51.08;100611.54;117301;1185;22648;-61
2022/01/23 01:43:28;;;;;;;14.40;6.80;;;;;;;-2.41;51.16;100611.48;117192;1182;23464;-61
2022/01/23 01:45:57;;;;;;;16.30;8.60;;;;;;;-2.33;51.19;100616.14;117351;1185;23476;-50
2022/01/23 01:48:25;;;;;;;13.00;6.30;;;;;;;-2.25;51.32;100613.57;117317;1182;23451;-60
2022/01/23 01:50:55;;;;;;;13.80;6.80;;;;;;;-2.14;51.32;100611.42;117202;1186;21866;-51
2022/01/23 01:53:23;;;;;;;12.80;6.70;;;;;;;-2.03;51.38;100609.98;117175;1182;24170;-55
2022/01/23 01:55:54;;;;;;;11.20;6.40;;;;;;;-1.93;51.34;100602.83;117269;1186;21962;-60
2022/01/23 02:01:04;;;;;;;16.30;6.70;;;;;;;-1.76;51.44;100602.00;117222;1185;21850;-59
2022/01/23 02:08:53;;;;;;;12.30;6.50;;;;;;;-1.54;51.71;100610.98;117295;1185;24178;-60
2022/01/23 02:11:43;;;;;;;11.90;6.00;;;;;;;-1.48;51.53;100614.48;117045;1179;21855;-51
2022/01/23 02:53:19;;;;;;;8.80;5.00;;;;;;;-1.25;51.51;100640.52;117323;1185;21845;-61
2022/01/23 02:55:45;;;;;;;10.90;4.80;;;;;;;-1.28;51.52;100637.64;117356;1182;22635;-51
2022/01/23 02:58:17;;;;;;;10.00;4.80;;;;;;;-1.30;51.65;100642.24;117175;1186;22632;-51
2022/01/23 03:01:19;;;;;;;10.10;4.90;;;;;;;-1.28;51.52;100641.44;117148;1179;21864;-51
2022/01/23 03:03:44;;;;;;;8.50;3.90;;;;;;;-1.26;51.74;100643.56;117296;1185;24155;-61
2022/01/23 03:06:35;;;;;;;8.80;4.80;;;;;;;-1.26;51.54;100645.31;117317;1185;24152;-60
2022/01/23 03:12:11;;;;;;;11.70;5.10;;;;;;;-1.26;51.62;100649.30;117041;1188;23478;-51
2022/01/23 03:26:12;;;;;;;8.10;4.30;;;;;;;-1.22;51.63;100654.42;117276;1186;23488;-52
2022/01/23 03:34:20;;;;;;;9.50;4.80;;;;;;;-1.17;51.86;100664.95;117247;1179;21855;-51
2022/01/23 03:36:48;;;;;;;8.60;4.50;;;;;;;-1.17;51.71;100666.86;117284;1185;21854;-51
2022/01/23 03:39:17;;;;;;;8.30;4.20;;;;;;;-1.16;51.54;100662.23;117317;1185;23502;-60
2022/01/23 03:41:45;;;;;;;9.10;4.70;;;;;;;-1.14;51.71;100663.70;117204;1184;22878;-52
2022/01/23 03:44:15;;;;;;;12.90;5.00;;;;;;;-1.13;51.79;100665.30;117315;1185;23500;-60
2022/01/23 03:46:50;;;;;;;9.50;4.30;;;;;;;-1.13;51.89;100668.92;117357;1185;21974;-52
2022/01/23 03:49:31;;;;;;;8.10;4.50;;;;;;;-1.09;51.66;100672.33;117126;1186;24381;-61
2022/01/23 03:52:06;;;;;;;7.70;4.30;;;;;;;-1.10;51.71;100670.05;117306;1186;24149;-51
2022/01/23 03:54:34;;;;;;;8.20;4.30;;;;;;;-1.10;51.81;100670.56;117301;1185;21878;-61
2022/01/23 03:57:03;;;;;;;7.80;4.50;;;;;;;-1.10;51.80;100669.56;117120;1186;21857;-60
2022/01/23 03:59:32;;;;;;;12.20;4.60;;;;;;;-1.12;51.85;100671.04;117161;1182;24307;-61
2022/01/23 04:02:00;;;;;;;9.50;4.70;;;;;;;-1.13;51.84;100673.21;117353;1183;23053;-51
2022/01/23 04:07:19;;;;;;;7.40;3.90;;;;;;;-1.18;51.48;100678.36;117295;1182;23453;-51
2022/01/23 04:09:47;;;;;;;7.40;4.10;;;;;;;-1.21;51.59;100677.05;117321;1185;21960;-51
2022/01/23 04:16:06;;;;;;;7.80;3.60;;;;;;;-1.27;51.68;100680.03;117192;1183;23475;-51
2022/01/23 04:45:34;;;;;;;8.10;4.70;;;;;;;-1.54;51.63;100686.02;117289;1183;23452;-61
2022/01/23 05:06:57;;;;;;;7.40;4.00;;;;;;;-1.63;51.66;100707.16;117282;1183;21914;-61
2022/01/23 05:09:26;;;;;;;6.80;3.80;;;;;;;-1.64;51.77;100704.88;117146;1183;23450;-59
2022/01/23 05:12:00;;;;;;;8.50;4.40;;;;;;;-1.63;51.77;100700.81;117094;1188;24170;-61
2022/01/23 05:14:32;;;;;;;9.20;4.80;;;;;;;-1.61;51.91;100706.38;117299;1186;21856;-60
2022/01/23 05:17:01;;;;;;;9.20;4.20;;;;;;;-1.59;51.85;100699.55;117209;1186;21868;-59
2022/01/23 05:19:34;;;;;;;10.60;5.20;;;;;;;-1.58;51.92;100700.48;117256;1186;21858;-56
2022/01/23 05:24:38;;;;;;;9.40;4.80;;;;;;;-1.57;51.95;100707.77;117258;1185;21871;-51
2022/01/23 05:27:08;;;;;;;10.40;4.60;;;;;;;-1.56;52.04;100705.77;117141;1185;21857;-61
2022/01/23 05:29:37;;;;;;;9.40;5.10;;;;;;;-1.53;51.87;100705.48;117348;1185;21863;-52
2022/01/23 05:32:08;;;;;;;31.70;6.70;;;;;;;-1.55;51.91;100709.42;117083;1186;23626;-51
2022/01/23 05:34:36;;;;;;;14.00;6.90;;;;;;;-1.53;51.84;100709.62;117311;1185;21854;-51
2022/01/23 05:37:05;;;;;;;7.90;4.50;;;;;;;-1.52;52.00;100714.70;117258;1185;23447;-50
2022/01/23 05:39:34;;;;;;;22.00;5.20;;;;;;;-1.51;51.85;100719.72;117175;1182;24437;-51
2022/01/23 05:42:09;;;;;;;10.70;4.90;;;;;;;-1.50;51.85;100722.15;117329;1182;23554;-52
2022/01/23 05:44:38;;;;;;;11.80;5.60;;;;;;;-1.48;51.84;100727.55;117149;1180;22989;-52
2022/01/23 05:47:07;;;;;;;7.20;4.10;;;;;;;-1.47;51.63;100731.56;117138;1183;22320;-51
2022/01/23 05:49:36;;;;;;;11.20;5.70;;;;;;;-1.45;51.72;100730.25;117160;1186;22925;-61
2022/01/23 05:52:05;;;;;;;8.40;4.30;;;;;;;-1.45;51.82;100736.13;117211;1183;22934;-61
2022/01/23 05:54:33;;;;;;;10.10;4.30;;;;;;;-1.48;51.89;100736.00;117160;1185;21858;-61
2022/01/23 05:57:03;;;;;;;12.30;5.00;;;;;;;-1.50;52.05;100733.03;117319;1182;21937;-61
2022/01/23 05:59:31;;;;;;;9.90;4.70;;;;;;;-1.50;51.83;100738.35;117352;1185;23645;-52
2022/01/23 06:01:59;;;;;;;8.30;4.90;;;;;;;-1.50;52.02;100737.67;117315;1182;24172;-51
2022/01/23 06:04:28;;;;;;;11.40;5.10;;;;;;;-1.50;51.98;100738.19;117320;1184;23184;-51
2022/01/23 06:06:58;;;;;;;18.50;6.80;;;;;;;-1.48;51.98;100740.64;117293;1183;23437;-52
2022/01/23 06:09:27;;;;;;;16.90;7.20;;;;;;;-1.45;52.10;100740.11;117187;1181;23562;-61
2022/01/23 06:11:55;;;;;;;25.40;9.30;;;;;;;-1.43;51.95;100743.63;117213;1186;23774;-61
2022/01/23 06:14:23;;;;;;;41.70;12.70;;;;;;;-1.40;51.96;100746.86;117124;1186;21845;-61
2022/01/23 06:16:52;;;;;;;22.60;8.70;;;;;;;-1.32;52.24;100750.95;117182;1182;23455;-50
2022/01/23 06:19:20;;;;;;;20.60;8.60;;;;;;;-1.20;52.41;100755.45;117267;1185;22947;-49
2022/01/23 06:21:48;;;;;;;13.40;7.90;;;;;;;-1.11;52.24;100759.42;117056;1185;21858;-65
2022/01/23 06:24:25;;;;;;;9.60;6.00;;;;;;;-1.06;52.29;100763.23;116857;1188;23451;-50
2022/01/23 06:26:58;;;;;;;14.60;8.40;;;;;;;-1.05;51.99;100761.04;117207;1186;22648;-65
2022/01/23 06:29:30;;;;;;;16.80;9.20;;;;;;;-1.03;52.27;100755.59;117186;1186;21907;-49
2022/01/23 06:32:00;;;;;;;17.40;9.60;;;;;;;-1.04;52.10;100755.06;117194;1182;22944;-65
2022/01/23 06:34:28;;;;;;;23.20;11.30;;;;;;;-1.03;52.12;100754.73;117125;1186;23496;-49
2022/01/23 06:36:58;;;;;;;35.50;17.80;;;;;;;-1.05;52.19;100759.48;117242;1185;23553;-65
2022/01/23 06:39:27;;;;;;;17.90;9.80;;;;;;;-1.06;52.17;100758.05;117197;1185;22947;-49
2022/01/23 06:41:55;;;;;;;13.70;7.80;;;;;;;-1.05;52.31;100757.92;117188;1186;21857;-49
2022/01/23 06:44:23;;;;;;;18.60;8.90;;;;;;;-1.04;52.06;100761.94;117183;1186;23478;-49
2022/01/23 06:46:52;;;;;;;14.20;7.10;;;;;;;-1.03;52.09;100764.73;117194;1179;24270;-64
2022/01/23 06:49:20;;;;;;;9.80;6.10;;;;;;;-0.99;52.09;100768.85;117190;1186;22158;-51
2022/01/23 06:51:49;;;;;;;12.90;6.60;;;;;;;-0.94;52.23;100769.75;117242;1182;24178;-51
2022/01/23 06:54:18;;;;;;;13.20;7.80;;;;;;;-0.88;52.35;100779.30;117211;1185;23941;-61
2022/01/23 06:56:46;;;;;;;13.20;8.90;;;;;;;-0.82;52.09;100779.89;117211;1186;22966;-53
2022/01/23 06:59:14;;;;;;;10.80;6.50;;;;;;;-0.79;52.33;100779.83;117226;1179;22624;-62
2022/01/23 07:01:42;;;;;;;10.60;5.70;;;;;;;-0.77;52.22;100779.91;117187;1186;21899;-65
2022/01/23 07:04:11;;;;;;;15.90;7.20;;;;;;;-0.76;52.30;100779.79;117160;1182;23606;-63
2022/01/23 07:06:39;;;;;;;11.60;6.60;;;;;;;-0.69;52.46;100777.29;117303;1183;23549;-65
2022/01/23 07:09:08;;;;;;;14.70;7.10;;;;;;;-0.60;52.48;100777.64;117188;1186;22725;-50
2022/01/23 07:11:37;;;;;;;11.40;6.00;;;;;;;-0.52;52.57;100785.70;117208;1186;24172;-50
2022/01/23 07:14:06;;;;;;;13.40;5.00;;;;;;;-0.42;52.55;100785.41;117263;1185;23573;-65
2022/01/23 07:16:34;;;;;;;18.50;5.30;;;;;;;-0.37;52.56;100784.94;117214;1182;22877;-64
2022/01/23 07:19:03;;;;;;;17.30;5.70;;;;;;;-0.31;52.62;100782.91;117376;1181;23449;-64
2022/01/23 07:21:32;;;;;;;13.20;6.10;;;;;;;-0.22;52.75;100781.69;117154;1183;22963;-65
2022/01/23 07:24:00;;;;;;;24.50;6.10;;;;;;;-0.12;52.65;100784.50;117203;1185;21868;-50
2022/01/23 07:26:29;;;;;;;19.10;5.50;;;;;;;-0.02;52.77;100789.00;117237;1182;23453;-49
2022/01/23 07:29:00;;;;;;;40.60;9.30;;;;;;;0.09;52.49;100789.73;117234;1182;23484;-67
2022/01/23 07:34:05;;;;;;;34.20;9.80;;;;;;;0.34;52.79;100794.08;117209;1182;23500;-51
2022/01/23 07:36:35;;;;;;;34.80;9.80;;;;;;;0.44;52.88;100793.08;117267;1182;21871;-51
2022/01/23 07:39:04;;;;;;;23.20;8.60;;;;;;;0.46;52.73;100796.56;117207;1186;21970;-66
2022/01/23 07:41:33;;;;;;;36.80;8.90;;;;;;;0.53;52.83;100794.40;117115;1182;21840;-67
2022/01/23 07:44:01;;;;;;;199.30;20.50;;;;;;;0.56;52.89;100792.82;117180;1185;23662;-50
2022/01/23 07:46:30;;;;;;;492.30;44.90;;;;;;;0.69;52.92;100791.35;117124;1182;21868;-50
2022/01/23 07:48:58;;;;;;;364.20;31.80;;;;;;;0.88;53.10;100793.21;117164;1185;23492;-67
2022/01/23 07:51:27;;;;;;;133.00;15.70;;;;;;;1.10;53.36;100795.14;117115;1183;23531;-67
2022/01/23 07:53:55;;;;;;;36.90;8.40;;;;;;;1.31;53.40;100794.93;117091;1186;21861;-52
2022/01/23 07:56:24;;;;;;;66.20;10.30;;;;;;;1.48;53.46;100791.83;117155;1186;21964;-52
2022/01/23 07:58:52;;;;;;;80.10;11.20;;;;;;;1.67;53.49;100790.54;117092;1179;21850;-51
2022/01/23 08:01:20;;;;;;;32.50;4.70;;;;;;;1.90;53.53;100789.65;117174;1186;23528;-68
2022/01/23 08:03:49;;;;;;;67.50;9.20;;;;;;;2.10;53.51;100785.55;117135;1182;23557;-51
2022/01/23 08:06:18;;;;;;;33.90;5.90;;;;;;;2.25;53.45;100780.61;117071;1186;21870;-67
2022/01/23 08:08:48;;;;;;;21.20;6.00;;;;;;;2.38;53.38;100778.02;117171;1183;21846;-52
2022/01/23 08:11:16;;;;;;;90.10;12.30;;;;;;;2.53;53.33;100782.59;117206;1182;21871;-51
2022/01/23 08:13:44;;;;;;;86.90;11.20;;;;;;;2.58;53.27;100781.17;117143;1179;23467;-68
2022/01/23 08:16:13;;;;;;;23.00;5.80;;;;;;;2.67;53.35;100776.02;117182;1186;21860;-52
2022/01/23 08:18:42;;;;;;;21.50;5.60;;;;;;;2.77;53.36;100775.95;116933;1186;23467;-51
2022/01/23 08:21:10;;;;;;;18.50;4.90;;;;;;;2.83;53.37;100780.44;117065;1188;23484;-50
2022/01/23 08:23:39;;;;;;;10.80;4.30;;;;;;;2.91;53.23;100782.86;117009;1183;23494;-51
2022/01/23 08:26:08;;;;;;;9.10;4.90;;;;;;;2.97;53.28;100787.37;117071;1186;24810;-50
2022/01/23 08:28:36;;;;;;;13.00;4.90;;;;;;;2.96;53.08;100790.64;117084;1183;23544;-50
2022/01/23 08:31:04;;;;;;;17.90;4.70;;;;;;;3.00;53.18;100790.92;117084;1182;22955;-52
2022/01/23 08:33:33;;;;;;;7.60;3.50;;;;;;;3.04;53.03;100791.90;117044;1183;22928;-50
2022/01/23 08:36:01;;;;;;;13.90;4.10;;;;;;;3.06;53.03;100788.29;117088;1179;23641;-51
2022/01/23 08:38:30;;;;;;;10.90;4.20;;;;;;;3.16;53.17;100786.61;117097;1186;21992;-51
2022/01/23 08:43:47;;;;;;;7.60;3.90;;;;;;;3.52;53.36;100794.40;117031;1186;24149;-71
2022/01/23 08:46:16;;;;;;;8.30;3.80;;;;;;;3.70;53.49;100788.58;117044;1186;22836;-70
2022/01/23 08:48:45;;;;;;;5.70;3.30;;;;;;;3.91;53.54;100790.77;117186;1185;24177;-71
2022/01/23 08:51:14;;;;;;;8.10;3.70;;;;;;;4.13;53.50;100779.39;117208;1181;23579;-50
2022/01/23 08:53:42;;;;;;;9.90;3.90;;;;;;;4.34;53.63;100782.97;117113;1182;22928;-71
2022/01/23 08:56:10;;;;;;;9.80;3.90;;;;;;;4.54;53.48;100780.56;117177;1182;22657;-51
2022/01/23 08:58:39;;;;;;;9.40;4.00;;;;;;;4.78;53.79;100775.25;117176;1182;21861;-52
2022/01/23 09:01:07;;;;;;;5.80;3.40;;;;;;;5.04;53.87;100775.17;117121;1183;21839;-50
2022/01/23 09:03:36;;;;;;;6.90;3.50;;;;;;;5.28;54.03;100777.30;117063;1183;23474;-69
2022/01/23 09:06:05;;;;;;;15.40;3.80;;;;;;;5.51;53.61;100774.18;117142;1182;23700;-71
2022/01/23 09:08:37;;;;;;;7.40;3.90;;;;;;;5.77;54.01;100773.48;117193;1186;22011;-69
2022/01/23 09:11:13;;;;;;;12.00;4.50;;;;;;;6.07;54.15;100771.30;117167;1181;24143;-70
2022/01/23 09:16:14;;;;;;;15.10;4.70;;;;;;;6.45;53.77;100773.14;117224;1185;23953;-69
2022/01/23 09:18:42;;;;;;;13.10;5.50;;;;;;;6.55;53.46;100779.17;117152;1186;22895;-53
2022/01/23 09:21:11;;;;;;;8.50;4.20;;;;;;;6.49;53.02;100775.44;117146;1186;22015;-65
2022/01/23 09:23:40;;;;;;;6.50;3.70;;;;;;;6.30;52.81;100775.40;117189;1186;23556;-65
2022/01/23 09:26:14;;;;;;;14.10;4.80;;;;;;;6.18;52.82;100776.84;117137;1186;23722;-65
2022/01/23 09:28:44;;;;;;;9.30;4.90;;;;;;;6.14;53.06;100778.89;117151;1183;21848;-51
2022/01/23 09:31:23;;;;;;;9.10;5.00;;;;;;;6.10;52.82;100774.82;117071;1183;22948;-51
2022/01/23 09:33:52;;;;;;;11.20;4.50;;;;;;;5.90;52.46;100773.84;117173;1185;22940;-51
2022/01/23 09:36:20;;;;;;;7.50;4.40;;;;;;;5.84;52.59;100774.98;117182;1183;23594;-62
2022/01/23 09:38:49;;;;;;;8.80;4.90;;;;;;;5.83;52.46;100777.40;117190;1186;23604;-51
2022/01/23 09:41:19;;;;;;;6.60;4.20;;;;;;;5.83;52.45;100781.59;117160;1182;23413;-63
2022/01/23 09:43:47;;;;;;;9.20;4.80;;;;;;;5.84;52.64;100784.39;117044;1184;21872;-63
2022/01/23 09:46:16;;;;;;;7.30;4.50;;;;;;;5.76;52.20;100780.79;117195;1183;23557;-52
2022/01/23 09:48:46;;;;;;;7.80;3.90;;;;;;;5.58;51.85;100776.36;117308;1182;23720;-51
2022/01/23 09:51:15;;;;;;;7.00;3.50;;;;;;;5.33;51.65;100772.16;117262;1183;23573;-53
2022/01/23 09:53:43;;;;;;;7.10;4.00;;;;;;;5.11;51.79;100766.41;117214;1186;24231;-64
2022/01/23 09:56:14;;;;;;;5.90;3.10;;;;;;;5.05;52.05;100775.90;117265;1182;23478;-51
2022/01/23 09:58:43;;;;;;;7.10;3.40;;;;;;;5.11;52.13;100776.68;117300;1185;23519;-53
2022/01/23 10:01:11;;;;;;;6.50;3.80;;;;;;;5.13;52.02;100781.06;117260;1182;21873;-59
2022/01/23 10:03:41;;;;;;;11.70;6.70;;;;;;;5.07;52.04;100783.58;117311;1186;23487;-53
2022/01/23 10:06:10;;;;;;;55.50;24.70;;;;;;;5.02;51.99;100783.33;117422;1183;22760;-51
2022/01/23 10:08:39;;;;;;;34.10;14.70;;;;;;;5.01;52.32;100780.69;117368;1185;21911;-51
2022/01/23 10:11:10;;;;;;;15.70;6.80;;;;;;;5.09;52.17;100786.57;117323;1183;24151;-63
2022/01/23 10:13:40;;;;;;;10.50;4.50;;;;;;;5.25;52.53;100789.09;117309;1183;23767;-63
2022/01/23 10:16:08;;;;;;;5.90;3.40;;;;;;;5.50;52.81;100791.21;117320;1182;21853;-63
2022/01/23 10:18:37;;;;;;;7.00;3.80;;;;;;;5.78;52.94;100790.41;117378;1182;24365;-51
2022/01/23 10:21:05;;;;;;;6.30;2.80;;;;;;;6.14;53.13;100786.53;117118;1186;23597;-64
2022/01/23 10:23:34;;;;;;;6.20;2.60;;;;;;;6.42;52.81;100788.79;117350;1183;23634;-50
2022/01/23 10:26:04;;;;;;;7.30;3.70;;;;;;;6.28;51.85;100785.14;117347;1181;21869;-64
2022/01/23 10:28:35;;;;;;;6.60;3.80;;;;;;;5.97;51.50;100783.87;117397;1186;21928;-51
2022/01/23 10:31:04;;;;;;;7.50;4.00;;;;;;;5.82;51.87;100789.06;117319;1184;21851;-51
2022/01/23 10:33:38;;;;;;;5.60;3.30;;;;;;;5.74;51.89;100792.61;117286;1186;22613;-52
2022/01/23 10:36:10;;;;;;;4.20;2.80;;;;;;;5.62;51.79;100794.54;117332;1179;21921;-64
2022/01/23 10:38:47;;;;;;;5.40;3.10;;;;;;;5.47;51.46;100789.95;117236;1182;23430;-63
2022/01/23 10:50:03;;;;;;;4.20;2.40;;;;;;;4.95;51.70;100797.98;117219;1179;23486;-63
2022/01/23 10:52:45;;;;;;;6.80;2.90;;;;;;;5.03;52.07;100796.21;117218;1182;22051;-62
2022/01/23 10:55:13;;;;;;;4.80;2.70;;;;;;;5.25;52.10;100795.36;117237;1183;22926;-63
2022/01/23 10:57:43;;;;;;;7.70;3.40;;;;;;;5.53;52.42;100792.98;117217;1179;23641;-63
2022/01/23 11:00:26;;;;;;;4.80;2.60;;;;;;;5.86;52.89;100794.00;117228;1185;21856;-63
2022/01/23 11:02:56;;;;;;;6.10;2.90;;;;;;;6.20;52.45;100792.20;117177;1182;21963;-54
2022/01/23 11:05:35;;;;;;;6.70;2.20;;;;;;;6.52;53.11;100789.08;119262;1183;21803;-60
2022/01/23 11:08:27;;;;;;;4.60;2.10;;;;;;;6.83;52.81;100790.95;118229;1186;21848;-53
2022/01/23 11:11:06;;;;;;;5.50;2.80;;;;;;;7.02;52.33;100789.41;119297;1182;21778;-58
2022/01/23 11:19:23;;;;;;;5.30;2.60;;;;;;;6.42;51.35;100796.80;119348;1185;21789;-53
2022/01/23 11:21:52;;;;;;;5.30;2.40;;;;;;;6.11;51.07;100796.80;119339;1182;21796;-64
2022/01/23 11:24:21;;;;;;;3.40;2.00;;;;;;;5.81;51.04;100798.12;119351;1185;21782;-64
2022/01/23 11:26:59;;;;;;;4.90;2.90;;;;;;;5.60;50.91;100799.71;119359;1181;21849;-54
2022/01/23 11:29:27;;;;;;;5.40;2.70;;;;;;;5.55;51.61;100797.71;118401;1187;22062;-64
2022/01/23 11:31:55;;;;;;;3.90;2.10;;;;;;;5.66;51.80;100799.98;119179;1185;22188;-61
2022/01/23 11:34:23;;;;;;;9.10;3.10;;;;;;;5.88;51.93;100799.23;119356;1185;21781;-64
2022/01/23 11:36:51;;;;;;;7.60;3.10;;;;;;;6.12;52.08;100801.52;119199;1186;21790;-64
2022/01/23 11:39:38;;;;;;;5.10;3.30;;;;;;;6.29;51.94;100805.20;119282;1185;21780;-53
2022/01/23 11:51:02;;;;;;;14.80;4.00;;;;;;;6.48;51.55;100804.38;116850;1182;23558;-52
2022/01/23 11:53:52;;;;;;;5.30;2.70;;;;;;;6.66;52.10;100809.98;119101;1186;21845;-54
2022/01/23 11:56:38;;;;;;;6.80;2.40;;;;;;;6.80;51.82;100815.88;118579;1186;22652;-53
2022/01/23 11:59:28;;;;;;;4.50;2.40;;;;;;;6.87;51.73;100818.38;119130;1184;21787;-64
2022/01/23 12:02:14;;;;;;;3.80;2.10;;;;;;;6.92;51.67;100824.54;119204;1182;21772;-55
2022/01/23 12:05:03;;;;;;;4.80;2.40;;;;;;;6.90;51.48;100828.86;117915;1182;23944;-64
2022/01/23 12:07:36;;;;;;;5.10;2.10;;;;;;;6.92;51.59;100826.63;119040;1186;22145;-64
2022/01/23 12:10:27;;;;;;;4.50;2.40;;;;;;;6.91;51.32;100830.81;119206;1186;21790;-64
2022/01/23 12:13:34;;;;;;;6.20;3.70;;;;;;;7.02;51.60;100836.52;118985;1186;21715;-55
2022/01/23 12:19:12;;;;;;;4.20;1.90;;;;;;;7.39;51.53;100837.17;119143;1186;21769;-54
2022/01/23 12:21:40;;;;;;;3.80;2.10;;;;;;;7.32;51.03;100844.11;119335;1182;21834;-65
2022/01/23 12:24:09;;;;;;;6.80;3.60;;;;;;;7.05;50.59;100845.08;116971;1186;21865;-64
2022/01/23 12:26:38;;;;;;;7.40;3.70;;;;;;;6.74;50.49;100849.65;119181;1186;21822;-54
2022/01/23 12:29:26;;;;;;;10.30;4.70;;;;;;;6.51;50.64;100856.72;119169;1186;21808;-61
2022/01/23 12:32:30;;;;;;;9.50;5.30;;;;;;;6.25;50.48;100855.70;119169;1186;21822;-60
2022/01/23 12:34:59;;;;;;;8.60;3.80;;;;;;;5.93;50.21;100862.89;119290;1185;21782;-55
2022/01/23 12:38:00;;;;;;;5.00;3.00;;;;;;;5.54;50.11;100872.23;119094;1186;21794;-59
2022/01/23 12:40:31;;;;;;;10.60;6.00;;;;;;;5.10;49.95;100875.64;119284;1186;21790;-61
2022/01/23 12:43:02;;;;;;;12.90;7.10;;;;;;;4.77;49.87;100879.73;119148;1186;21785;-55
2022/01/23 12:45:46;;;;;;;15.30;9.80;;;;;;;4.49;49.75;100883.35;119253;1186;21804;-58
2022/01/23 12:48:29;;;;;;;9.70;6.10;;;;;;;4.23;49.53;100882.80;117435;1186;21876;-53
2022/01/23 12:51:03;;;;;;;11.10;6.20;;;;;;;4.02;49.66;100886.33;117099;1179;21860;-60
2022/01/23 12:53:47;;;;;;;8.80;5.10;;;;;;;3.77;49.75;100885.60;117271;1187;23093;-55
2022/01/23 12:56:28;;;;;;;6.90;4.20;;;;;;;3.74;49.98;100889.17;119361;1183;21923;-59
2022/01/23 12:59:04;;;;;;;10.90;5.10;;;;;;;3.78;49.96;100894.63;119353;1184;21719;-60
2022/01/23 13:01:32;;;;;;;16.00;8.00;;;;;;;3.80;50.23;100892.95;119176;1186;21784;-55
2022/01/23 13:04:03;;;;;;;16.40;8.10;;;;;;;3.81;50.03;100893.83;119217;1186;21801;-61
2022/01/23 13:06:35;;;;;;;15.10;9.50;;;;;;;3.80;50.07;100895.36;119167;1186;21803;-55
2022/01/23 13:09:15;;;;;;;10.70;6.60;;;;;;;3.77;49.88;100906.42;119377;1185;21781;-55
2022/01/23 13:12:02;;;;;;;9.20;4.40;;;;;;;3.73;50.00;100911.71;119361;1185;21931;-60
2022/01/23 13:14:37;;;;;;;8.80;3.80;;;;;;;3.73;49.98;100919.86;119331;1186;21813;-60
2022/01/23 13:17:31;;;;;;;7.50;2.40;;;;;;;3.74;50.02;100930.14;119361;1185;21839;-59
2022/01/23 13:31:37;;;;;;;8.30;2.80;;;;;;;3.23;50.01;100950.02;117159;1186;21854;-64
2022/01/23 13:34:26;;;;;;;11.30;5.20;;;;;;;3.07;50.30;100948.88;117029;1181;22968;-62
2022/01/23 13:37:00;;;;;;;8.70;3.60;;;;;;;3.04;50.19;100953.64;117313;1185;22950;-52
2022/01/23 13:39:43;;;;;;;9.80;3.00;;;;;;;2.92;49.92;100955.55;116987;1183;22938;-61
2022/01/23 14:02:17;;;;;;;33.30;18.40;;;;;;;2.42;50.21;100967.64;117295;1182;23448;-50
2022/01/23 14:05:06;;;;;;;27.40;13.50;;;;;;;2.45;50.21;100968.93;117305;1179;22792;-51
2022/01/23 14:07:34;;;;;;;22.10;11.30;;;;;;;2.48;50.28;100971.95;117320;1183;23493;-51
2022/01/23 14:10:39;;;;;;;17.90;8.70;;;;;;;2.48;50.36;100978.03;117401;1182;22928;-51
2022/01/23 14:13:14;;;;;;;36.40;20.10;;;;;;;2.41;50.27;100974.54;116926;1186;22622;-63
2022/01/23 14:15:44;;;;;;;27.50;21.30;;;;;;;2.40;50.19;100970.17;116938;1188;21867;-50
2022/01/23 14:18:20;;;;;;;16.90;10.50;;;;;;;2.36;50.24;100973.85;116919;1188;23478;-51
2022/01/23 14:20:58;;;;;;;45.50;27.60;;;;;;;2.28;50.07;100975.87;116876;1185;22948;-65
2022/01/23 14:23:27;;;;;;;24.80;15.60;;;;;;;2.25;50.41;100975.95;116854;1188;22929;-65
2022/01/23 14:26:08;;;;;;;19.10;13.40;;;;;;;2.22;50.09;100980.19;116868;1181;21899;-64
2022/01/23 14:28:47;;;;;;;18.30;11.00;;;;;;;2.15;50.25;100983.79;116885;1186;22242;-50
2022/01/23 14:31:24;;;;;;;17.90;7.60;;;;;;;2.06;50.15;100990.77;116946;1186;23575;-51
2022/01/23 14:33:56;;;;;;;11.40;6.20;;;;;;;1.98;50.15;100998.61;116949;1186;23560;-59
2022/01/23 14:36:35;;;;;;;13.00;6.30;;;;;;;1.86;50.22;101003.10;116898;1185;24238;-63
2022/01/23 14:39:05;;;;;;;11.90;4.40;;;;;;;1.72;50.27;101010.24;116954;1186;23463;-62
2022/01/23 14:41:36;;;;;;;17.60;4.90;;;;;;;1.65;50.35;101010.52;116961;1188;21855;-53
2022/01/23 14:44:18;;;;;;;12.70;4.80;;;;;;;1.64;50.43;101009.62;116838;1188;21884;-53
2022/01/23 14:46:51;;;;;;;8.60;6.10;;;;;;;1.50;50.33;101015.03;116959;1185;22875;-56
2022/01/23 14:49:25;;;;;;;10.60;7.60;;;;;;;1.32;49.97;101019.94;117356;1182;21972;-53
2022/01/23 14:51:55;;;;;;;7.80;5.30;;;;;;;1.18;49.94;101022.55;117088;1186;23013;-53
2022/01/23 14:54:25;;;;;;;7.00;4.80;;;;;;;1.02;49.68;101032.50;117343;1183;23553;-53
2022/01/23 14:56:53;;;;;;;10.10;6.80;;;;;;;0.90;49.93;101038.98;117081;1187;21950;-53
2022/01/23 14:59:22;;;;;;;7.00;4.70;;;;;;;0.78;49.96;101040.78;117289;1184;23455;-60
2022/01/23 15:01:50;;;;;;;7.20;5.50;;;;;;;0.53;50.11;101049.31;117371;1181;23468;-60
2022/01/23 15:04:20;;;;;;;8.40;6.00;;;;;;;0.44;50.04;101057.27;117332;1176;21864;-59
2022/01/23 15:06:51;;;;;;;9.80;4.80;;;;;;;0.39;50.00;101057.41;117270;1184;23456;-59
2022/01/23 15:09:21;;;;;;;10.00;7.50;;;;;;;0.28;49.90;101059.73;117344;1183;23474;-59
2022/01/23 15:11:49;;;;;;;13.10;9.00;;;;;;;0.23;50.17;101060.04;117334;1176;21859;-60
2022/01/23 15:14:18;;;;;;;12.40;9.00;;;;;;;0.20;50.07;101062.67;117345;1185;21853;-54
2022/01/23 15:16:48;;;;;;;23.50;18.60;;;;;;;0.14;50.05;101064.70;117367;1182;24142;-55
2022/01/23 15:19:17;;;;;;;;;;;;;;;0.09;50.18;101067.91;117298;1182;22078;-53
2022/01/23 15:21:45;;;;;;;13.30;9.10;;;;;;;0.06;50.21;101069.86;117349;1183;22844;-60
2022/01/23 15:24:13;;;;;;;10.30;7.60;;;;;;;0.02;49.66;101073.84;117255;1186;21858;-60